createdAt,value
2018-01-16T00:02:19.233Z,53.33
2018-01-16T00:04:45.333Z,37.30
2018-01-16T00:07:11.411Z,27.93
2018-01-16T00:09:37.626Z,25.20
2018-01-16T00:12:03.702Z,29.50
2018-01-16T00:14:29.870Z,24.47
2018-01-16T00:16:56.035Z,30.23
2018-01-16T00:19:22.242Z,28.07
2018-01-16T00:21:48.326Z,27.07
2018-01-16T00:24:14.426Z,27.87
2018-01-16T00:26:40.594Z,29.07
2018-01-16T00:29:06.761Z,37.63
2018-01-16T00:31:32.982Z,36.27
2018-01-16T00:33:59.173Z,31.20
2018-01-16T00:36:25.310Z,36.67
2018-01-16T00:38:51.482Z,36.00
2018-01-16T00:41:17.697Z,45.53
2018-01-16T00:43:43.793Z,35.10
2018-01-16T00:46:10.006Z,26.57
2018-01-16T00:48:36.082Z,20.87
2018-01-16T00:51:02.180Z,24.00
2018-01-16T00:53:28.419Z,32.17
2018-01-16T00:55:54.529Z,33.17
2018-01-16T00:58:20.671Z,19.53
2018-01-16T01:00:46.889Z,18.90
2018-01-16T01:03:13.074Z,16.73
2018-01-16T01:05:39.317Z,25.37
2018-01-16T01:08:05.497Z,19.87
2018-01-16T01:10:31.750Z,20.70
2018-01-16T01:12:57.845Z,22.83
2018-01-16T01:15:23.985Z,25.07
2018-01-16T01:17:50.099Z,28.73
2018-01-16T01:20:16.325Z,33.47
2018-01-16T01:22:42.573Z,45.37
2018-01-16T01:25:08.726Z,41.83
2018-01-16T01:27:34.971Z,39.10
2018-01-16T01:30:01.070Z,31.33
2018-01-16T01:32:27.302Z,51.97
2018-01-16T01:34:53.557Z,114.73
2018-01-16T01:37:19.762Z,186.63
2018-01-16T01:39:45.974Z,235.60
2018-01-16T01:42:12.122Z,231.17
2018-01-16T01:44:38.370Z,165.50
2018-01-16T01:47:04.646Z,256.17
2018-01-16T01:49:30.937Z,99.73
2018-01-16T01:51:57.090Z,150.60
2018-01-16T01:54:23.267Z,152.43
2018-01-16T01:56:49.446Z,172.77
2018-01-16T01:59:15.641Z,84.53
2018-01-16T02:01:41.806Z,45.80
2018-01-16T02:04:07.952Z,41.67
2018-01-16T02:06:34.218Z,50.10
2018-01-16T02:09:00.389Z,38.83
2018-01-16T02:11:26.597Z,45.30
2018-01-16T02:13:52.829Z,39.40
2018-01-16T02:16:18.881Z,38.60
2018-01-16T02:18:45.030Z,47.37
2018-01-16T02:21:11.098Z,29.50
2018-01-16T02:23:37.354Z,34.37
2018-01-16T02:26:03.571Z,41.97
2018-01-16T02:28:29.702Z,27.77
2018-01-16T02:30:55.806Z,32.17
2018-01-16T02:33:21.989Z,27.77
2018-01-16T02:35:48.198Z,27.70
2018-01-16T02:38:14.342Z,25.27
2018-01-16T02:40:40.621Z,22.67
2018-01-16T02:43:06.802Z,22.83
2018-01-16T02:45:33.081Z,27.43
2018-01-16T02:47:59.226Z,19.30
2018-01-16T02:50:25.498Z,17.00
2018-01-16T02:52:51.615Z,18.67
2018-01-16T02:55:17.766Z,17.03
2018-01-16T02:57:43.961Z,18.03
2018-01-16T03:00:10.145Z,23.17
2018-01-16T03:02:36.335Z,18.33
2018-01-16T03:05:02.465Z,18.57
2018-01-16T03:07:28.606Z,16.77
2018-01-16T03:09:55.069Z,17.10
2018-01-16T03:12:21.237Z,21.70
2018-01-16T03:14:47.444Z,21.43
2018-01-16T03:17:13.681Z,32.13
2018-01-16T03:19:39.789Z,22.03
2018-01-16T03:22:06.009Z,18.23
2018-01-16T03:24:32.265Z,17.03
2018-01-16T03:26:58.529Z,18.13
2018-01-16T03:29:24.626Z,20.43
2018-01-16T03:31:50.874Z,21.77
2018-01-16T03:34:16.941Z,17.17
2018-01-16T03:36:43.134Z,20.53
2018-01-16T03:39:09.265Z,18.53
2018-01-16T03:41:35.526Z,24.37
2018-01-16T03:44:01.590Z,24.60
2018-01-16T03:46:27.717Z,25.10
2018-01-16T03:48:53.978Z,21.57
2018-01-16T03:51:20.133Z,27.63
2018-01-16T03:53:46.302Z,21.40
2018-01-16T03:56:12.517Z,20.87
2018-01-16T03:58:38.611Z,35.23
2018-01-16T04:01:04.806Z,27.50
2018-01-16T04:03:31.057Z,20.40
2018-01-16T04:05:57.126Z,23.30
2018-01-16T04:08:23.297Z,22.23
2018-01-16T04:10:49.582Z,46.63
2018-01-16T04:13:15.790Z,58.23
2018-01-16T04:15:42.310Z,52.00
2018-01-16T04:18:08.518Z,41.33
2018-01-16T04:20:34.662Z,42.17
2018-01-16T04:23:00.771Z,49.80
2018-01-16T04:25:27.035Z,38.23
2018-01-16T04:27:53.141Z,34.83
2018-01-16T04:30:19.394Z,46.03
2018-01-16T04:32:45.533Z,52.07
2018-01-16T04:35:11.641Z,27.20
2018-01-16T04:37:37.776Z,22.40
2018-01-16T04:40:03.843Z,21.43
2018-01-16T04:42:30.030Z,19.93
2018-01-16T04:44:56.210Z,17.73
2018-01-16T04:47:22.474Z,21.10
2018-01-16T04:49:48.594Z,22.00
2018-01-16T04:52:14.865Z,23.23
2018-01-16T04:54:41.086Z,18.83
2018-01-16T04:57:07.657Z,18.20
2018-01-16T04:59:33.918Z,19.27
2018-01-16T05:02:00.161Z,42.37
2018-01-16T05:04:26.269Z,49.13
2018-01-16T05:06:52.491Z,59.23
2018-01-16T05:09:18.705Z,45.30
2018-01-16T05:11:44.944Z,31.57
2018-01-16T05:14:11.163Z,34.83
2018-01-16T05:16:37.273Z,31.23
2018-01-16T05:19:03.458Z,27.17
2018-01-16T05:21:29.671Z,28.23
2018-01-16T05:23:55.865Z,25.93
2018-01-16T05:26:22.036Z,26.33
2018-01-16T05:28:48.167Z,28.63
2018-01-16T05:31:14.385Z,27.23
2018-01-16T05:33:40.589Z,24.90
2018-01-16T05:36:06.725Z,26.77
2018-01-16T05:38:32.854Z,24.37
2018-01-16T05:40:58.885Z,24.70
2018-01-16T05:43:25.105Z,27.33
2018-01-16T05:45:51.391Z,26.47
2018-01-16T05:48:17.763Z,28.63
2018-01-16T05:50:43.879Z,32.97
2018-01-16T05:53:10.138Z,28.60
2018-01-16T05:55:36.318Z,27.53
2018-01-16T05:58:02.489Z,26.23
2018-01-16T06:00:28.658Z,28.07
2018-01-16T06:02:54.906Z,27.27
2018-01-16T06:05:21.046Z,28.47
2018-01-16T06:07:47.212Z,25.43
2018-01-16T06:10:13.394Z,28.67
2018-01-16T06:12:39.542Z,26.20
2018-01-16T06:15:05.610Z,25.60
2018-01-16T06:17:31.780Z,25.07
2018-01-16T06:19:57.796Z,25.73
2018-01-16T06:22:24.038Z,26.87
2018-01-16T06:24:50.230Z,29.70
2018-01-16T06:27:16.411Z,26.20
2018-01-16T06:29:42.561Z,28.47
2018-01-16T06:32:08.769Z,33.80
2018-01-16T06:34:34.882Z,27.73
2018-01-16T06:37:01.097Z,29.13
2018-01-16T06:39:27.210Z,26.60
2018-01-16T06:41:53.469Z,28.50
2018-01-16T06:44:19.629Z,27.73
2018-01-16T06:46:45.847Z,36.83
2018-01-16T06:49:12.108Z,23.57
2018-01-16T06:51:38.282Z,24.83
2018-01-16T06:54:04.414Z,34.00
2018-01-16T06:56:30.695Z,26.57
2018-01-16T06:58:56.939Z,27.67
2018-01-16T07:01:23.055Z,29.30
2018-01-16T07:03:49.246Z,32.23
2018-01-16T07:06:15.456Z,31.40
2018-01-16T07:08:41.532Z,27.00
2018-01-16T07:11:07.678Z,24.50
2018-01-16T07:13:33.914Z,28.73
2018-01-16T07:16:00.136Z,37.00
2018-01-16T07:18:26.386Z,42.20
2018-01-16T07:20:52.642Z,35.17
2018-01-16T07:23:18.812Z,41.73
2018-01-16T07:25:44.998Z,33.67
2018-01-16T07:28:11.088Z,28.40
2018-01-16T07:30:37.221Z,25.07
2018-01-16T07:33:03.425Z,27.93
2018-01-16T07:35:29.499Z,107.47
2018-01-16T07:37:55.663Z,30.30
2018-01-16T07:40:21.818Z,27.03
2018-01-16T07:42:48.314Z,25.30
2018-01-16T07:45:14.502Z,27.27
2018-01-16T07:47:40.710Z,26.93
2018-01-16T07:50:06.802Z,27.30
2018-01-16T07:52:32.870Z,28.43
2018-01-16T07:54:59.006Z,26.37
2018-01-16T07:57:25.230Z,27.77
2018-01-16T07:59:51.549Z,29.07
2018-01-16T08:02:17.705Z,32.90
2018-01-16T08:04:43.973Z,28.43
2018-01-16T08:07:10.146Z,26.63
2018-01-16T08:09:36.406Z,33.83
2018-01-16T08:12:02.660Z,29.57
2018-01-16T08:14:28.733Z,30.53
2018-01-16T08:16:54.895Z,33.87
2018-01-16T08:19:21.286Z,31.23
2018-01-16T08:21:47.351Z,31.80
2018-01-16T08:24:13.609Z,26.67
2018-01-16T08:26:39.921Z,27.57
2018-01-16T08:29:06.069Z,30.47
2018-01-16T08:31:32.306Z,30.57
2018-01-16T08:33:58.414Z,26.43
2018-01-16T08:36:24.605Z,27.80
2018-01-16T08:38:50.734Z,28.03
2018-01-16T08:41:33.826Z,27.43
2018-01-16T08:44:00.094Z,26.23
2018-01-16T08:46:26.149Z,28.73
2018-01-16T08:48:52.350Z,27.70
2018-01-16T08:56:48.905Z,38.43
2018-01-16T08:59:15.018Z,28.57
2018-01-16T09:01:41.210Z,34.47
2018-01-16T09:04:07.410Z,30.50
2018-01-16T09:06:33.642Z,31.03
2018-01-16T09:08:59.920Z,28.83
2018-01-16T09:36:25.958Z,22.30
2018-01-16T09:38:52.153Z,20.63
2018-01-16T09:57:50.464Z,31.43
2018-01-16T10:22:35.632Z,38.67
2018-01-16T10:25:01.896Z,54.77
2018-01-16T10:27:28.083Z,30.23
2018-01-16T10:38:14.209Z,23.80
2018-01-16T10:40:57.149Z,23.90
2018-01-16T10:43:23.250Z,25.80
2018-01-16T10:45:49.494Z,27.20
2018-01-16T10:48:15.599Z,26.57
2018-01-16T11:09:59.850Z,24.90
2018-01-16T11:12:25.954Z,27.63
2018-01-16T11:14:52.154Z,23.00
2018-01-16T11:17:18.301Z,23.50
2018-01-16T11:30:50.174Z,22.53
2018-01-16T11:33:16.397Z,22.70
2018-01-16T11:35:42.561Z,39.27
2018-01-16T11:38:08.736Z,41.60
2018-01-16T11:46:19.522Z,23.83
2018-01-16T11:54:28.515Z,22.43
2018-01-16T11:56:54.714Z,22.33
2018-01-16T11:59:33.553Z,22.80
2018-01-16T12:01:59.738Z,22.33
2018-01-16T12:04:25.935Z,22.57
2018-01-16T12:06:52.182Z,24.63
2018-01-16T12:14:49.011Z,26.03
2018-01-16T12:17:15.126Z,34.20
2018-01-16T12:19:41.239Z,24.17
2018-01-16T12:22:07.482Z,22.10
2018-01-16T12:24:33.578Z,26.73
2018-01-16T12:26:59.801Z,33.43
2018-01-16T12:32:18.245Z,22.63
2018-01-16T12:34:44.365Z,22.27
2018-01-16T12:37:10.514Z,24.33
2018-01-16T12:39:49.266Z,26.17
2018-01-16T12:45:00.974Z,26.10
2018-01-16T12:47:27.813Z,24.73
2018-01-16T13:25:45.942Z,35.77
2018-01-16T13:28:12.194Z,36.57
2018-01-16T13:30:41.774Z,29.83
2018-01-16T13:33:08.049Z,34.17
2018-01-16T13:35:34.294Z,33.80
2018-01-16T13:38:00.441Z,36.27
2018-01-16T13:43:12.738Z,45.03
2018-01-16T13:45:38.933Z,46.30
2018-01-16T13:48:05.134Z,31.70
2018-01-16T14:23:44.531Z,103.17
2018-01-16T14:26:10.702Z,52.27
2018-01-16T14:31:22.481Z,34.43
2018-01-16T14:33:48.540Z,29.37
2018-01-16T14:36:14.798Z,35.60
2018-01-16T14:38:40.903Z,29.67
2018-01-16T14:41:07.021Z,32.33
2018-01-16T14:43:33.197Z,33.30
2018-01-16T14:45:59.319Z,56.63
2018-01-16T14:48:25.582Z,56.50
2018-01-16T14:50:51.731Z,59.03
2018-01-16T14:53:17.918Z,59.13
2018-01-16T14:55:44.047Z,57.33
2018-01-16T14:58:10.123Z,63.00
2018-01-16T15:00:36.375Z,67.87
2018-01-16T15:03:02.851Z,83.57
2018-01-16T15:05:29.601Z,50.00
2018-01-16T15:07:55.746Z,45.50
2018-01-16T15:10:21.826Z,44.53
2018-01-16T15:12:48.078Z,56.33
2018-01-16T15:15:14.207Z,41.60
2018-01-16T15:17:40.423Z,37.43
2018-01-16T15:20:06.574Z,48.50
2018-01-16T15:22:32.673Z,39.43
2018-01-16T15:24:58.890Z,40.90
2018-01-16T15:27:25.111Z,34.13
2018-01-16T15:29:52.258Z,34.87
2018-01-16T15:32:18.519Z,34.97
2018-01-16T15:34:44.750Z,47.93
2018-01-16T15:37:10.990Z,45.93
2018-01-16T15:39:37.043Z,101.10
2018-01-16T15:42:03.281Z,45.20
2018-01-16T15:44:29.485Z,37.73
2018-01-16T15:46:55.635Z,42.07
2018-01-16T15:49:21.834Z,42.00
2018-01-16T15:51:48.113Z,125.20
2018-01-16T15:54:14.354Z,59.27
2018-01-16T15:56:40.569Z,52.33
2018-01-16T15:59:07.794Z,52.23
2018-01-16T16:01:34.024Z,50.37
2018-01-16T16:04:00.201Z,116.03
2018-01-16T16:06:26.919Z,45.00
2018-01-16T16:08:53.014Z,126.70
2018-01-16T16:11:19.107Z,51.90
2018-01-16T16:13:45.380Z,48.37
2018-01-16T16:16:11.457Z,75.17
2018-01-16T16:18:37.660Z,48.83
2018-01-16T16:21:03.825Z,52.30
2018-01-16T16:23:30.030Z,42.57
2018-01-16T16:25:56.256Z,45.67
2018-01-16T16:28:23.250Z,62.77
2018-01-16T16:30:49.413Z,50.40
2018-01-16T16:33:15.662Z,54.13
2018-01-16T16:35:41.897Z,78.57
2018-01-16T16:38:08.106Z,50.67
2018-01-16T16:40:34.218Z,47.90
2018-01-16T16:43:00.478Z,49.63
2018-01-16T16:45:26.719Z,49.47
2018-01-16T16:47:52.835Z,84.83
2018-01-16T16:50:18.985Z,80.27
2018-01-16T16:52:45.287Z,97.17
2018-01-16T16:55:11.434Z,105.97
2018-01-16T16:57:37.630Z,104.93
2018-01-16T17:00:03.734Z,106.97
2018-01-16T17:02:29.858Z,108.43
2018-01-16T17:04:56.006Z,107.97
2018-01-16T17:07:22.074Z,109.00
2018-01-16T17:09:48.293Z,172.03
2018-01-16T17:12:14.478Z,135.20
2018-01-16T17:14:40.697Z,178.07
2018-01-16T17:17:06.795Z,120.87
2018-01-16T17:19:33.083Z,83.90
2018-01-16T17:21:59.334Z,69.77
2018-01-16T17:24:25.514Z,67.30
2018-01-16T17:26:51.735Z,70.20
2018-01-16T17:29:17.854Z,57.13
2018-01-16T17:31:44.015Z,114.33
2018-01-16T17:34:10.206Z,79.57
2018-01-16T17:36:36.375Z,74.23
2018-01-16T17:39:03.607Z,179.17
2018-01-16T17:41:29.856Z,71.70
2018-01-16T17:43:56.047Z,84.23
2018-01-16T17:46:22.314Z,110.83
2018-01-16T17:48:48.458Z,98.10
2018-01-16T17:51:14.652Z,62.73
2018-01-16T17:53:40.810Z,66.90
2018-01-16T17:56:07.022Z,66.87
2018-01-16T17:58:33.281Z,64.70
2018-01-16T18:00:59.552Z,63.40
2018-01-16T18:03:25.638Z,57.97
2018-01-16T18:05:51.738Z,74.97
2018-01-16T18:08:17.973Z,71.60
2018-01-16T18:10:43.999Z,73.90
2018-01-16T18:13:10.186Z,64.77
2018-01-16T18:15:36.414Z,76.90
2018-01-16T18:18:02.654Z,76.77
2018-01-16T18:20:28.759Z,85.20
2018-01-16T18:22:55.030Z,73.43
2018-01-16T18:25:21.178Z,74.63
2018-01-16T18:27:47.407Z,73.13
2018-01-16T18:30:13.603Z,81.87
2018-01-16T18:32:39.794Z,92.83
2018-01-16T18:35:05.942Z,101.63
2018-01-16T18:37:32.089Z,89.03
2018-01-16T18:39:58.344Z,110.63
2018-01-16T18:42:24.538Z,129.33
2018-01-16T18:44:50.660Z,115.03
2018-01-16T18:47:16.918Z,101.50
2018-01-16T18:49:43.138Z,103.13
2018-01-16T18:52:09.294Z,172.27
2018-01-16T18:54:35.400Z,113.93
2018-01-16T18:57:04.491Z,81.17
2018-01-16T18:59:31.627Z,73.83
2018-01-16T19:01:57.735Z,76.63
2018-01-16T19:04:23.990Z,78.97
2018-01-16T19:06:50.240Z,78.97
2018-01-16T19:09:16.524Z,74.80
2018-01-16T19:11:42.717Z,79.10
2018-01-16T19:14:09.221Z,77.27
2018-01-16T19:16:35.334Z,87.00
2018-01-16T19:19:02.087Z,53.43
2018-01-16T19:21:28.258Z,54.67
2018-01-16T19:23:54.371Z,67.17
2018-01-16T19:26:20.588Z,68.10
2018-01-16T19:31:45.697Z,63.10
2018-01-16T19:34:11.968Z,68.90
2018-01-16T19:36:38.098Z,69.07
2018-01-16T19:41:59.758Z,66.10
2018-01-16T19:44:25.914Z,66.70
2018-01-16T19:46:52.178Z,69.23
2018-01-16T20:11:20.626Z,73.67
2018-01-16T20:13:46.727Z,79.27
2018-01-16T20:16:12.915Z,84.50
2018-01-16T20:24:21.954Z,73.00
2018-01-16T20:26:48.177Z,71.27
2018-01-16T20:29:28.175Z,58.23
2018-01-16T20:31:54.346Z,60.43
2018-01-16T20:34:21.241Z,52.33
2018-01-16T20:36:47.405Z,55.47
2018-01-16T20:39:18.451Z,60.33
2018-01-16T20:41:44.614Z,56.63
2018-01-16T20:44:10.775Z,55.33
2018-01-16T20:46:36.878Z,47.90
2018-01-16T20:49:08.879Z,55.27
2018-01-16T20:51:34.938Z,55.57
2018-01-16T20:54:01.111Z,47.27
2018-01-16T20:56:27.217Z,52.30
2018-01-16T20:59:06.865Z,55.50
2018-01-16T21:01:33.118Z,59.83
2018-01-16T21:03:59.255Z,51.10
2018-01-16T21:06:25.363Z,50.90
2018-01-16T21:08:52.617Z,53.87
2018-01-16T21:11:19.123Z,58.43
2018-01-16T21:13:45.344Z,63.87
2018-01-16T21:16:11.495Z,81.43
2018-01-16T21:18:46.034Z,87.57
2018-01-16T21:21:12.486Z,53.40
2018-01-16T21:23:38.666Z,54.93
2018-01-16T21:26:04.882Z,52.07
2018-01-16T21:36:47.882Z,47.83
2018-01-16T21:39:15.094Z,54.17
2018-01-16T21:41:41.249Z,48.03
2018-01-16T21:44:07.358Z,48.97
2018-01-16T21:46:33.533Z,47.40
2018-01-16T21:49:04.685Z,53.93
2018-01-16T21:51:30.806Z,55.20
2018-01-16T21:53:56.970Z,51.90
2018-01-16T21:56:23.134Z,52.87
2018-01-16T21:58:56.489Z,51.13
2018-01-16T22:01:22.594Z,51.17
2018-01-16T22:03:48.705Z,55.97
2018-01-16T22:06:14.938Z,54.60
2018-01-16T22:11:32.255Z,57.10
2018-01-16T22:13:58.445Z,51.20
2018-01-16T22:16:24.546Z,48.23
2018-01-16T22:18:50.775Z,46.33
2018-01-16T22:21:16.877Z,50.03
2018-01-16T22:23:43.287Z,46.73
2018-01-16T22:26:09.422Z,56.80
2018-01-16T22:28:36.703Z,70.33
2018-01-16T22:31:02.827Z,74.83
2018-01-16T22:33:28.974Z,70.00
2018-01-16T22:35:55.039Z,67.23
2018-01-16T22:38:21.325Z,47.77
2018-01-16T22:40:47.474Z,40.33
2018-01-16T22:43:13.714Z,43.53
2018-01-16T22:45:39.798Z,44.63
2018-01-16T22:48:11.169Z,49.03
2018-01-16T22:50:37.271Z,45.80
2018-01-16T22:53:03.486Z,42.40
2018-01-16T22:55:29.668Z,53.30
2018-01-16T22:58:06.008Z,49.47
2018-01-16T23:00:32.141Z,48.17
2018-01-16T23:02:58.222Z,48.07
2018-01-16T23:05:24.486Z,53.03
2018-01-16T23:08:02.006Z,40.03
2018-01-16T23:10:28.103Z,40.43
2018-01-16T23:12:54.270Z,40.27
2018-01-16T23:15:20.498Z,51.37
2018-01-16T23:17:46.590Z,48.17
2018-01-16T23:20:12.763Z,46.17
2018-01-16T23:22:38.930Z,43.87
2018-01-16T23:25:05.107Z,35.67
2018-01-16T23:30:19.670Z,38.10
2018-01-16T23:32:45.914Z,38.73
2018-01-16T23:35:12.231Z,51.50
2018-01-16T23:37:42.154Z,44.90
2018-01-16T23:40:08.394Z,45.17
2018-01-16T23:42:34.478Z,41.00
2018-01-16T23:45:00.606Z,39.60
2018-01-16T23:50:15.499Z,41.87
2018-01-16T23:52:41.642Z,49.37
2018-01-16T23:55:07.886Z,41.57
